sensor_id;sensor_type;location;lat;lon;timestamp;pressure;altitude;pressure_sealevel;temperature;humidity
5988;BME280;3021;51.000;6.980;2023-04-28T00:01:46;67720.78;;;12.73;100.00
5988;BME280;3021;51.000;6.980;2023-04-28T00:04:11;67720.19;;;12.73;100.00
5988;BME280;3021;51.000;6.980;2023-04-28T00:06:37;67704.72;;;12.61;100.00
5988;BME280;3021;51.000;6.980;2023-04-28T00:09:02;67709.06;;;12.60;100.00
5988;BME280;3021;51.000;6.980;2023-04-28T00:11:28;67715.13;;;12.71;100.00
5988;BME280;3021;51.000;6.980;2023-04-28T00:13:53;67709.78;;;12.64;100.00
5988;BME280;3021;51.000;6.980;2023-04-28T00:16:18;67670.88;;;12.26;100.00
5988;BME280;3021;51.000;6.980;2023-04-28T00:18:44;67640.91;;;12.02;100.00
5988;BME280;3021;51.000;6.980;2023-04-28T00:21:09;67647.84;;;12.08;100.00
5988;BME280;3021;51.000;6.980;2023-04-28T00:23:34;67670.72;;;12.24;100.00
5988;BME280;3021;51.000;6.980;2023-04-28T00:26:00;67681.41;;;12.38;100.00
5988;BME280;3021;51.000;6.980;2023-04-28T00:28:26;67691.97;;;12.50;100.00
5988;BME280;3021;51.000;6.980;2023-04-28T00:30:51;67697.63;;;12.53;100.00
5988;BME280;3021;51.000;6.980;2023-04-28T00:33:16;67693.59;;;12.49;100.00
5988;BME280;3021;51.000;6.980;2023-04-28T00:35:42;67692.28;;;12.45;100.00
5988;BME280;3021;51.000;6.980;2023-04-28T00:38:07;67683.59;;;12.38;100.00
5988;BME280;3021;51.000;6.980;2023-04-28T00:40:37;67667.41;;;12.23;100.00
5988;BME280;3021;51.000;6.980;2023-04-28T00:43:04;67652.47;;;12.13;100.00
5988;BME280;3021;51.000;6.980;2023-04-28T00:45:29;67637.31;;;11.97;100.00
5988;BME280;3021;51.000;6.980;2023-04-28T00:47:55;67628.59;;;11.89;100.00
5988;BME280;3021;51.000;6.980;2023-04-28T00:50:22;67642.66;;;12.04;100.00
5988;BME280;3021;51.000;6.980;2023-04-28T00:52:48;67662.91;;;12.22;100.00
5988;BME280;3021;51.000;6.980;2023-04-28T00:55:14;67669.28;;;12.27;100.00
5988;BME280;3021;51.000;6.980;2023-04-28T00:57:41;67669.84;;;12.28;100.00
5988;BME280;3021;51.000;6.980;2023-04-28T01:00:07;67681.28;;;12.36;100.00
5988;BME280;3021;51.000;6.980;2023-04-28T01:02:34;67687.06;;;12.41;100.00
5988;BME280;3021;51.000;6.980;2023-04-28T01:05:00;67691.41;;;12.50;100.00
5988;BME280;3021;51.000;6.980;2023-04-28T01:07:25;67701.09;;;12.56;100.00
5988;BME280;3021;51.000;6.980;2023-04-28T01:09:51;67697.34;;;12.48;100.00
5988;BME280;3021;51.000;6.980;2023-04-28T01:12:16;67661.19;;;12.20;100.00
5988;BME280;3021;51.000;6.980;2023-04-28T01:14:41;67610.25;;;11.75;100.00
5988;BME280;3021;51.000;6.980;2023-04-28T01:17:07;67553.69;;;11.27;100.00
5988;BME280;3021;51.000;6.980;2023-04-28T01:19:33;67526.97;;;11.01;100.00
5988;BME280;3021;51.000;6.980;2023-04-28T01:21:58;67514.09;;;10.87;100.00
5988;BME280;3021;51.000;6.980;2023-04-28T01:24:23;67485.34;;;10.64;100.00
5988;BME280;3021;51.000;6.980;2023-04-28T01:26:49;67492.16;;;10.67;100.00
5988;BME280;3021;51.000;6.980;2023-04-28T01:29:14;67477.81;;;10.57;100.00
5988;BME280;3021;51.000;6.980;2023-04-28T01:31:40;67472.63;;;10.52;100.00
5988;BME280;3021;51.000;6.980;2023-04-28T01:34:05;67465.97;;;10.42;100.00
5988;BME280;3021;51.000;6.980;2023-04-28T01:36:31;67450.06;;;10.32;100.00
5988;BME280;3021;51.000;6.980;2023-04-28T01:38:57;67442.56;;;10.26;100.00
5988;BME280;3021;51.000;6.980;2023-04-28T01:41:23;67436.66;;;10.18;100.00
5988;BME280;3021;51.000;6.980;2023-04-28T01:43:48;67437.81;;;10.19;100.00
5988;BME280;3021;51.000;6.980;2023-04-28T01:46:14;67439.53;;;10.20;100.00
5988;BME280;3021;51.000;6.980;2023-04-28T01:48:39;67441.84;;;10.23;100.00
5988;BME280;3021;51.000;6.980;2023-04-28T01:51:04;67444.28;;;10.27;100.00
5988;BME280;3021;51.000;6.980;2023-04-28T01:56:32;67462.50;;;10.38;100.00
5988;BME280;3021;51.000;6.980;2023-04-28T01:58:58;67451.25;;;10.33;100.00
5988;BME280;3021;51.000;6.980;2023-04-28T02:01:23;67449.50;;;10.32;100.00
5988;BME280;3021;51.000;6.980;2023-04-28T02:03:48;67450.66;;;10.33;100.00
5988;BME280;3021;51.000;6.980;2023-04-28T02:06:14;67477.81;;;10.57;100.00
5988;BME280;3021;51.000;6.980;2023-04-28T02:08:39;67481.28;;;10.60;100.00
5988;BME280;3021;51.000;6.980;2023-04-28T02:11:05;67482.44;;;10.61;100.00
5988;BME280;3021;51.000;6.980;2023-04-28T02:13:30;67481.72;;;10.58;100.00
5988;BME280;3021;51.000;6.980;2023-04-28T02:15:59;67469.03;;;10.47;100.00
5988;BME280;3021;51.000;6.980;2023-04-28T02:18:24;67458.03;;;10.37;100.00
5988;BME280;3021;51.000;6.980;2023-04-28T02:20:50;67439.69;;;10.23;100.00
5988;BME280;3021;51.000;6.980;2023-04-28T02:23:15;67425.25;;;10.10;100.00
5988;BME280;3021;51.000;6.980;2023-04-28T02:25:40;67430.13;;;10.10;100.00
5988;BME280;3021;51.000;6.980;2023-04-28T02:28:06;67440.69;;;10.21;100.00
5988;BME280;3021;51.000;6.980;2023-04-28T02:30:31;67444.00;;;10.22;100.00
5988;BME280;3021;51.000;6.980;2023-04-28T02:32:56;67430.28;;;10.12;100.00
5988;BME280;3021;51.000;6.980;2023-04-28T02:35:22;67422.94;;;10.08;100.00
5988;BME280;3021;51.000;6.980;2023-04-28T02:37:47;67425.25;;;10.10;100.00
5988;BME280;3021;51.000;6.980;2023-04-28T02:40:12;67422.78;;;10.06;100.00
5988;BME280;3021;51.000;6.980;2023-04-28T02:42:38;67420.63;;;10.06;100.00
5988;BME280;3021;51.000;6.980;2023-04-28T02:45:04;67419.31;;;10.02;100.00
5988;BME280;3021;51.000;6.980;2023-04-28T02:47:30;67407.91;;;9.95;100.00
5988;BME280;3021;51.000;6.980;2023-04-28T02:49:55;67407.31;;;9.94;100.00
5988;BME280;3021;51.000;6.980;2023-04-28T02:52:20;67411.94;;;9.98;100.00
5988;BME280;3021;51.000;6.980;2023-04-28T02:54:45;67417.00;;;10.00;100.00
5988;BME280;3021;51.000;6.980;2023-04-28T02:57:13;67424.09;;;10.09;100.00
5988;BME280;3021;51.000;6.980;2023-04-28T02:59:38;67424.50;;;10.07;100.00
5988;BME280;3021;51.000;6.980;2023-04-28T03:02:03;67414.84;;;10.01;100.00
5988;BME280;3021;51.000;6.980;2023-04-28T03:04:29;67414.13;;;9.98;100.00
5988;BME280;3021;51.000;6.980;2023-04-28T03:06:54;67424.09;;;10.09;100.00
5988;BME280;3021;51.000;6.980;2023-04-28T03:09:20;67429.28;;;10.14;100.00
5988;BME280;3021;51.000;6.980;2023-04-28T03:11:48;67426.53;;;10.14;100.00
5988;BME280;3021;51.000;6.980;2023-04-28T03:14:13;67422.94;;;10.08;100.00
5988;BME280;3021;51.000;6.980;2023-04-28T03:16:39;67428.00;;;10.10;100.00
5988;BME280;3021;51.000;6.980;2023-04-28T03:19:04;67429.13;;;10.11;100.00
5988;BME280;3021;51.000;6.980;2023-04-28T03:21:29;67433.34;;;10.17;100.00
5988;BME280;3021;51.000;6.980;2023-04-28T03:23:56;67425.97;;;10.13;100.00
5988;BME280;3021;51.000;6.980;2023-04-28T03:26:21;67429.72;;;10.12;100.00
5988;BME280;3021;51.000;6.980;2023-04-28T03:28:47;67434.91;;;10.16;100.00
5988;BME280;3021;51.000;6.980;2023-04-28T03:31:12;67440.09;;;10.21;100.00
5988;BME280;3021;51.000;6.980;2023-04-28T03:33:37;67435.47;;;10.17;100.00
5988;BME280;3021;51.000;6.980;2023-04-28T03:36:03;67436.81;;;10.20;100.00
5988;BME280;3021;51.000;6.980;2023-04-28T03:38:28;67426.97;;;10.12;100.00
5988;BME280;3021;51.000;6.980;2023-04-28T03:40:53;67428.28;;;10.15;100.00
5988;BME280;3021;51.000;6.980;2023-04-28T03:43:21;67435.06;;;10.19;100.00
5988;BME280;3021;51.000;6.980;2023-04-28T03:45:46;67420.19;;;10.08;100.00
5988;BME280;3021;51.000;6.980;2023-04-28T03:48:13;67421.03;;;10.04;100.00
5988;BME280;3021;51.000;6.980;2023-04-28T03:50:38;67413.69;;;10.00;100.00
5988;BME280;3021;51.000;6.980;2023-04-28T03:53:05;67405.44;;;9.90;100.00
5988;BME280;3021;51.000;6.980;2023-04-28T03:55:30;67406.03;;;9.91;100.00
5988;BME280;3021;51.000;6.980;2023-04-28T03:57:55;67425.09;;;10.08;100.00
5988;BME280;3021;51.000;6.980;2023-04-28T04:00:21;67422.94;;;10.08;100.00
5988;BME280;3021;51.000;6.980;2023-04-28T04:02:46;67417.16;;;10.03;100.00
5988;BME280;3021;51.000;6.980;2023-04-28T04:05:11;67412.38;;;9.96;100.00
5988;BME280;3021;51.000;6.980;2023-04-28T04:07:37;67405.03;;;9.92;100.00
5988;BME280;3021;51.000;6.980;2023-04-28T04:10:02;67406.75;;;9.94;100.00
5988;BME280;3021;51.000;6.980;2023-04-28T04:12:28;67394.63;;;9.83;100.00
5988;BME280;3021;51.000;6.980;2023-04-28T04:14:53;67395.63;;;9.81;100.00
5988;BME280;3021;51.000;6.980;2023-04-28T04:17:18;67394.63;;;9.83;100.00
5988;BME280;3021;51.000;6.980;2023-04-28T04:19:43;67387.13;;;9.76;100.00
5988;BME280;3021;51.000;6.980;2023-04-28T04:22:09;67380.19;;;9.70;100.00
5988;BME280;3021;51.000;6.980;2023-04-28T04:24:34;67385.97;;;9.75;100.00
5988;BME280;3021;51.000;6.980;2023-04-28T04:26:59;67389.88;;;9.76;100.00
5988;BME280;3021;51.000;6.980;2023-04-28T04:29:25;67387.69;;;9.77;100.00
5988;BME280;3021;51.000;6.980;2023-04-28T04:31:50;67385.97;;;9.75;100.00
5988;BME280;3021;51.000;6.980;2023-04-28T04:34:16;67389.28;;;9.76;100.00
5988;BME280;3021;51.000;6.980;2023-04-28T04:36:42;67381.19;;;9.68;100.00
5988;BME280;3021;51.000;6.980;2023-04-28T04:39:07;67380.63;;;9.68;100.00
5988;BME280;3021;51.000;6.980;2023-04-28T04:41:32;67383.66;;;9.73;100.00
5988;BME280;3021;51.000;6.980;2023-04-28T04:43:58;67386.25;;;9.71;100.00
5988;BME280;3021;51.000;6.980;2023-04-28T04:46:23;67377.88;;;9.68;100.00
5988;BME280;3021;51.000;6.980;2023-04-28T04:48:48;67389.00;;;9.80;100.00
5988;BME280;3021;51.000;6.980;2023-04-28T04:51:14;67404.88;;;9.90;100.00
5988;BME280;3021;51.000;6.980;2023-04-28T04:53:42;67413.56;;;9.97;100.00
5988;BME280;3021;51.000;6.980;2023-04-28T04:56:07;67419.47;;;10.05;100.00
5988;BME280;3021;51.000;6.980;2023-04-28T04:58:33;67422.34;;;10.08;100.00
5988;BME280;3021;51.000;6.980;2023-04-28T05:00:58;67434.31;;;10.16;100.00
5988;BME280;3021;51.000;6.980;2023-04-28T05:03:23;67453.97;;;10.33;100.00
5988;BME280;3021;51.000;6.980;2023-04-28T05:05:49;67462.50;;;10.38;100.00
5988;BME280;3021;51.000;6.980;2023-04-28T05:08:14;67464.84;;;10.41;100.00
5988;BME280;3021;51.000;6.980;2023-04-28T05:10:39;67462.09;;;10.41;100.00
5988;BME280;3021;51.000;6.980;2023-04-28T05:13:05;67465.56;;;10.44;100.00
5988;BME280;3021;51.000;6.980;2023-04-28T05:15:31;67454.28;;;10.38;100.00
5988;BME280;3021;51.000;6.980;2023-04-28T05:17:56;67462.66;;;10.41;100.00
5988;BME280;3021;51.000;6.980;2023-04-28T05:20:22;67462.81;;;10.44;100.00
5988;BME280;3021;51.000;6.980;2023-04-28T05:22:48;67472.94;;;10.48;100.00
5988;BME280;3021;51.000;6.980;2023-04-28T05:25:13;67461.09;;;10.42;100.00
5988;BME280;3021;51.000;6.980;2023-04-28T05:30:14;67422.34;;;10.08;100.00
5988;BME280;3021;51.000;6.980;2023-04-28T05:32:40;67416.41;;;10.00;100.00
5988;BME280;3021;51.000;6.980;2023-04-28T05:35:06;67416.41;;;10.00;100.00
5988;BME280;3021;51.000;6.980;2023-04-28T05:37:31;67415.28;;;9.99;100.00
5988;BME280;3021;51.000;6.980;2023-04-28T05:39:56;67417.00;;;10.00;100.00
5988;BME280;3021;51.000;6.980;2023-04-28T05:42:22;67418.31;;;10.04;100.00
5988;BME280;3021;51.000;6.980;2023-04-28T05:44:47;67427.41;;;10.10;100.00
5988;BME280;3021;51.000;6.980;2023-04-28T05:47:12;67431.00;;;10.15;100.00
5988;BME280;3021;51.000;6.980;2023-04-28T05:49:38;67430.28;;;10.12;100.00
5988;BME280;3021;51.000;6.980;2023-04-28T05:52:06;67426.38;;;10.11;100.00
5988;BME280;3021;51.000;6.980;2023-04-28T05:54:31;67447.03;;;10.27;100.00
5988;BME280;3021;51.000;6.980;2023-04-28T05:56:58;67454.72;;;10.36;100.00
5988;BME280;3021;51.000;6.980;2023-04-28T05:59:24;67449.50;;;10.32;100.00
5988;BME280;3021;51.000;6.980;2023-04-28T06:02:12;67451.25;;;10.33;100.00
5988;BME280;3021;51.000;6.980;2023-04-28T06:05:01;67459.78;;;10.38;100.00
5988;BME280;3021;51.000;6.980;2023-04-28T06:07:50;67469.59;;;10.47;100.00
5988;BME280;3021;51.000;6.980;2023-04-28T06:10:42;67464.53;;;10.45;100.00
5988;BME280;3021;51.000;6.980;2023-04-28T06:13:30;67473.78;;;10.53;100.00
5988;BME280;3021;51.000;6.980;2023-04-28T06:16:15;67473.34;;;10.55;100.00
5988;BME280;3021;51.000;6.980;2023-04-28T06:19:07;67512.94;;;10.86;100.00
5988;BME280;3021;51.000;6.980;2023-04-28T06:35:59;67563.41;;;11.33;100.00
5988;BME280;3021;51.000;6.980;2023-04-28T06:38:24;67607.34;;;11.72;100.00
5988;BME280;3021;51.000;6.980;2023-04-28T06:40:50;67639.91;;;12.04;100.00
5988;BME280;3021;51.000;6.980;2023-04-28T06:43:16;67662.31;;;12.21;100.00
5988;BME280;3021;51.000;6.980;2023-04-28T06:45:41;67688.50;;;12.47;100.00
5988;BME280;3021;51.000;6.980;2023-04-28T06:48:07;67656.66;;;12.19;100.00
5988;BME280;3021;51.000;6.980;2023-04-28T06:50:32;67662.91;;;12.22;100.00
5988;BME280;3021;51.000;6.980;2023-04-28T06:52:57;67679.38;;;12.41;100.00
5988;BME280;3021;51.000;6.980;2023-04-28T06:55:23;67705.56;;;12.57;100.00
5988;BME280;3021;51.000;6.980;2023-04-28T06:57:48;67720.78;;;12.73;100.00
5988;BME280;3021;51.000;6.980;2023-04-28T07:00:14;67757.25;;;13.06;100.00
5988;BME280;3021;51.000;6.980;2023-04-28T07:02:40;67780.56;;;13.29;100.00
5988;BME280;3021;51.000;6.980;2023-04-28T07:05:05;67768.84;;;13.16;100.00
5988;BME280;3021;51.000;6.980;2023-04-28T07:07:31;67771.88;;;13.21;100.00
5988;BME280;3021;51.000;6.980;2023-04-28T07:09:56;67782.72;;;13.28;100.00
5988;BME280;3021;51.000;6.980;2023-04-28T07:12:23;67778.09;;;13.24;100.00
5988;BME280;3021;51.000;6.980;2023-04-28T07:14:48;67761.47;;;13.12;100.00
5988;BME280;3021;51.000;6.980;2023-04-28T07:17:15;67791.56;;;13.39;100.00
5988;BME280;3021;51.000;6.980;2023-04-28T07:19:40;67814.03;;;13.56;100.00
5988;BME280;3021;51.000;6.980;2023-04-28T07:22:06;67811.28;;;13.56;100.00
5988;BME280;3021;51.000;6.980;2023-04-28T07:24:31;67803.75;;;13.50;100.00
5988;BME280;3021;51.000;6.980;2023-04-28T07:26:57;67789.56;;;13.32;100.00
5988;BME280;3021;51.000;6.980;2023-04-28T07:29:22;67771.16;;;13.18;100.00
5988;BME280;3021;51.000;6.980;2023-04-28T07:31:48;67760.16;;;13.08;100.00
5988;BME280;3021;51.000;6.980;2023-04-28T07:34:14;67772.88;;;13.20;100.00
5988;BME280;3021;51.000;6.980;2023-04-28T07:36:39;67783.91;;;13.29;100.00
5988;BME280;3021;51.000;6.980;2023-04-28T07:39:05;67797.22;;;13.41;100.00
5988;BME280;3021;51.000;6.980;2023-04-28T07:41:38;67793.63;;;13.36;100.00
5988;BME280;3021;51.000;6.980;2023-04-28T07:44:05;67802.72;;;13.51;100.00
5988;BME280;3021;51.000;6.980;2023-04-28T07:46:31;67821.13;;;13.65;100.00
5988;BME280;3021;51.000;6.980;2023-04-28T07:48:56;67873.72;;;14.09;100.00
5988;BME280;3021;51.000;6.980;2023-04-28T07:51:21;67971.28;;;14.98;100.00
5988;BME280;3021;51.000;6.980;2023-04-28T07:53:47;68046.69;;;15.65;100.00
5988;BME280;3021;51.000;6.980;2023-04-28T07:56:12;68040.31;;;15.60;100.00
5988;BME280;3021;51.000;6.980;2023-04-28T07:58:37;68033.34;;;15.53;100.00
5988;BME280;3021;51.000;6.980;2023-04-28T08:01:03;68007.38;;;15.33;100.00
5988;BME280;3021;51.000;6.980;2023-04-28T08:03:28;67997.97;;;15.22;100.00
5988;BME280;3021;51.000;6.980;2023-04-28T08:05:54;68034.63;;;15.57;100.00
5988;BME280;3021;51.000;6.980;2023-04-28T08:08:19;68086.03;;;15.98;100.00
5988;BME280;3021;51.000;6.980;2023-04-28T08:10:45;68014.22;;;15.36;100.00
5988;BME280;3021;51.000;6.980;2023-04-28T08:13:12;67989.25;;;15.14;100.00
5988;BME280;3021;51.000;6.980;2023-04-28T08:15:40;68014.22;;;15.36;100.00
5988;BME280;3021;51.000;6.980;2023-04-28T08:18:06;68044.25;;;15.61;100.00
5988;BME280;3021;51.000;6.980;2023-04-28T08:20:31;68000.88;;;15.25;100.00
5988;BME280;3021;51.000;6.980;2023-04-28T08:22:57;68047.16;;;15.63;100.00
5988;BME280;3021;51.000;6.980;2023-04-28T08:25:23;68118.09;;;16.29;100.00
5988;BME280;3021;51.000;6.980;2023-04-28T08:27:48;68170.22;;;16.72;100.00
5988;BME280;3021;51.000;6.980;2023-04-28T08:30:13;68145.25;;;16.50;100.00
5988;BME280;3021;51.000;6.980;2023-04-28T08:32:39;68150.59;;;16.57;100.00
5988;BME280;3021;51.000;6.980;2023-04-28T08:35:04;68166.16;;;16.69;100.00
5988;BME280;3021;51.000;6.980;2023-04-28T08:37:30;68171.66;;;16.79;100.00
5988;BME280;3021;51.000;6.980;2023-04-28T08:39:55;68197.69;;;16.99;100.00
5988;BME280;3021;51.000;6.980;2023-04-28T08:42:29;68177.47;;;16.84;100.00
5988;BME280;3021;51.000;6.980;2023-04-28T08:44:57;68163.28;;;16.66;100.00
5988;BME280;3021;51.000;6.980;2023-04-28T08:47:29;68218.00;;;17.17;100.00
5988;BME280;3021;51.000;6.980;2023-04-28T08:50:04;68275.09;;;17.70;100.00
5988;BME280;3021;51.000;6.980;2023-04-28T08:52:30;68257.06;;;17.54;100.00
5988;BME280;3021;51.000;6.980;2023-04-28T08:54:58;68240.66;;;17.37;100.00
5988;BME280;3021;51.000;6.980;2023-04-28T08:57:25;68190.84;;;16.96;100.00
5988;BME280;3021;51.000;6.980;2023-04-28T08:59:52;68188.38;;;16.91;100.00
5988;BME280;3021;51.000;6.980;2023-04-28T09:02:18;68172.81;;;16.80;100.00
5988;BME280;3021;51.000;6.980;2023-04-28T09:04:43;68143.22;;;16.53;100.00
5988;BME280;3021;51.000;6.980;2023-04-28T09:07:13;68130.28;;;16.39;100.00
5988;BME280;3021;51.000;6.980;2023-04-28T09:09:39;68153.97;;;16.58;100.00
5988;BME280;3021;51.000;6.980;2023-04-28T09:12:06;68151.19;;;16.58;100.00
5988;BME280;3021;51.000;6.980;2023-04-28T09:14:33;68162.81;;;16.68;100.00
5988;BME280;3021;51.000;6.980;2023-04-28T09:16:59;68157.00;;;16.63;100.00
5988;BME280;3021;51.000;6.980;2023-04-28T09:19:35;68134.94;;;16.44;100.00
5988;BME280;3021;51.000;6.980;2023-04-28T09:22:01;68098.38;;;16.11;100.00
5988;BME280;3021;51.000;6.980;2023-04-28T09:24:39;67996.22;;;15.20;100.00
5988;BME280;3021;51.000;6.980;2023-04-28T09:27:08;67931.09;;;14.60;100.00
5988;BME280;3021;51.000;6.980;2023-04-28T09:29:36;67919.66;;;14.52;100.00
5988;BME280;3021;51.000;6.980;2023-04-28T09:32:15;67908.19;;;14.45;100.00
5988;BME280;3021;51.000;6.980;2023-04-28T09:34:42;67910.22;;;14.42;100.00
5988;BME280;3021;51.000;6.980;2023-04-28T09:37:20;67931.69;;;14.61;100.00
5988;BME280;3021;51.000;6.980;2023-04-28T09:39:46;67926.47;;;14.56;100.00
5988;BME280;3021;51.000;6.980;2023-04-28T09:42:36;67962.31;;;14.85;100.00
5988;BME280;3021;51.000;6.980;2023-04-28T09:45:08;67914.44;;;14.48;100.00
5988;BME280;3021;51.000;6.980;2023-04-28T09:47:42;67884.75;;;14.19;100.00
5988;BME280;3021;51.000;6.980;2023-04-28T09:50:09;67875.59;;;14.13;100.00
5988;BME280;3021;51.000;6.980;2023-04-28T09:52:37;67878.78;;;14.11;100.00
5988;BME280;3021;51.000;6.980;2023-04-28T09:55:04;67871.84;;;14.05;100.00
5988;BME280;3021;51.000;6.980;2023-04-28T09:57:32;67870.09;;;14.04;100.00
5988;BME280;3021;51.000;6.980;2023-04-28T09:59:58;67869.66;;;14.06;100.00
5988;BME280;3021;51.000;6.980;2023-04-28T10:02:24;67878.22;;;14.11;100.00
5988;BME280;3021;51.000;6.980;2023-04-28T10:04:50;67870.25;;;14.06;100.00
5988;BME280;3021;51.000;6.980;2023-04-28T10:07:19;67875.59;;;14.13;100.00
5988;BME280;3021;51.000;6.980;2023-04-28T10:09:48;67910.97;;;14.45;100.00
5988;BME280;3021;51.000;6.980;2023-04-28T10:12:24;67915.59;;;14.49;100.00
5988;BME280;3021;51.000;6.980;2023-04-28T10:14:50;67903.41;;;14.38;100.00
5988;BME280;3021;51.000;6.980;2023-04-28T10:17:19;67892.97;;;14.29;100.00
5988;BME280;3021;51.000;6.980;2023-04-28T10:19:46;67881.38;;;14.18;100.00
5988;BME280;3021;51.000;6.980;2023-04-28T10:27:44;67948.50;;;14.76;100.00
5988;BME280;3021;51.000;6.980;2023-04-28T10:30:20;67949.09;;;14.76;100.00
5988;BME280;3021;51.000;6.980;2023-04-28T10:32:46;67964.75;;;14.90;100.00
5988;BME280;3021;51.000;6.980;2023-04-28T10:38:15;68009.41;;;15.30;100.00
5988;BME280;3021;51.000;6.980;2023-04-28T10:40:41;67966.63;;;14.94;100.00
5988;BME280;3021;51.000;6.980;2023-04-28T10:43:34;67954.47;;;14.83;100.00
5988;BME280;3021;51.000;6.980;2023-04-28T10:46:04;67947.50;;;14.77;100.00
5988;BME280;3021;51.000;6.980;2023-04-28T10:56:21;68011.88;;;15.34;100.00
5988;BME280;3021;51.000;6.980;2023-04-28T10:58:58;68016.97;;;15.36;100.00
5988;BME280;3021;51.000;6.980;2023-04-28T11:01:28;68058.88;;;15.76;100.00
5988;BME280;3021;51.000;6.980;2023-04-28T11:06:39;68244.16;;;17.40;100.00
5988;BME280;3021;51.000;6.980;2023-04-28T11:11:37;68373.34;;;18.57;100.00
5988;BME280;3021;51.000;6.980;2023-04-28T11:16:55;68614.84;;;20.68;100.00
5988;BME280;3021;51.000;6.980;2023-04-28T11:19:25;68678.34;;;21.24;100.00
5988;BME280;3021;51.000;6.980;2023-04-28T11:21:53;68672.06;;;21.21;100.00
5988;BME280;3021;51.000;6.980;2023-04-28T11:24:20;68587.59;;;20.47;100.00
5988;BME280;3021;51.000;6.980;2023-04-28T11:26:46;68575.47;;;20.38;100.00
5988;BME280;3021;51.000;6.980;2023-04-28T11:29:12;68606.09;;;20.61;100.00
5988;BME280;3021;51.000;6.980;2023-04-28T11:31:39;68612.63;;;20.69;100.00
5988;BME280;3021;51.000;6.980;2023-04-28T11:34:09;68695.97;;;21.43;100.00
5988;BME280;3021;51.000;6.980;2023-04-28T11:36:41;68768.59;;;22.02;100.00
5988;BME280;3021;51.000;6.980;2023-04-28T11:39:09;68807.38;;;22.41;100.00
5988;BME280;3021;51.000;6.980;2023-04-28T11:41:36;68824.88;;;22.56;100.00
5988;BME280;3021;51.000;6.980;2023-04-28T11:46:53;68756.59;;;21.96;100.00
5988;BME280;3021;51.000;6.980;2023-04-28T11:49:25;68676.59;;;21.23;100.00
5988;BME280;3021;51.000;6.980;2023-04-28T11:51:52;68599.81;;;20.58;100.00
5988;BME280;3021;51.000;6.980;2023-04-28T11:54:26;68560.53;;;20.18;100.00
5988;BME280;3021;51.000;6.980;2023-04-28T11:56:52;68583.50;;;20.43;100.00
5988;BME280;3021;51.000;6.980;2023-04-28T11:59:25;68682.44;;;21.28;100.00
5988;BME280;3021;51.000;6.980;2023-04-28T12:01:53;68751.38;;;21.91;100.00
5988;BME280;3021;51.000;6.980;2023-04-28T12:04:45;68858.81;;;22.89;100.00
5988;BME280;3021;51.000;6.980;2023-04-28T12:07:15;68924.09;;;23.44;100.00
5988;BME280;3021;51.000;6.980;2023-04-28T12:09:44;68884.38;;;23.09;100.00
5988;BME280;3021;51.000;6.980;2023-04-28T12:12:12;68801.66;;;22.38;100.00
5988;BME280;3021;51.000;6.980;2023-04-28T12:17:29;68749.63;;;21.90;100.00
5988;BME280;3021;51.000;6.980;2023-04-28T12:19:56;68762.44;;;22.01;100.00
5988;BME280;3021;51.000;6.980;2023-04-28T12:22:26;68750.66;;;21.88;100.00
5988;BME280;3021;51.000;6.980;2023-04-28T12:25:11;68775.41;;;22.15;100.00
5988;BME280;3021;51.000;6.980;2023-04-28T12:27:38;68762.44;;;22.01;100.00
5988;BME280;3021;51.000;6.980;2023-04-28T12:30:28;68801.53;;;22.36;100.00
5988;BME280;3021;51.000;6.980;2023-04-28T12:32:54;68852.28;;;22.81;100.00
5988;BME280;3021;51.000;6.980;2023-04-28T12:35:27;68898.97;;;23.22;100.00
5988;BME280;3021;51.000;6.980;2023-04-28T12:37:53;68976.06;;;23.90;100.00
5988;BME280;3021;51.000;6.980;2023-04-28T12:40:20;68997.22;;;24.11;100.00
5988;BME280;3021;51.000;6.980;2023-04-28T12:42:45;68990.53;;;24.00;100.00
5988;BME280;3021;51.000;6.980;2023-04-28T12:45:11;68928.16;;;23.47;100.00
5988;BME280;3021;51.000;6.980;2023-04-28T12:47:37;68883.22;;;23.08;100.00
5988;BME280;3021;51.000;6.980;2023-04-28T12:50:06;68875.06;;;23.01;100.00
5988;BME280;3021;51.000;6.980;2023-04-28T12:52:31;68880.19;;;23.03;100.00
5988;BME280;3021;51.000;6.980;2023-04-28T12:54:58;68863.97;;;22.91;100.00
5988;BME280;3021;51.000;6.980;2023-04-28T12:57:23;68865.25;;;22.94;100.00
5988;BME280;3021;51.000;6.980;2023-04-28T12:59:50;68849.94;;;22.78;100.00
5988;BME280;3021;51.000;6.980;2023-04-28T13:02:17;68823.13;;;22.55;100.00
5988;BME280;3021;51.000;6.980;2023-04-28T13:04:42;68833.75;;;22.67;100.00
5988;BME280;3021;51.000;6.980;2023-04-28T13:07:10;68839.56;;;22.72;100.00
5988;BME280;3021;51.000;6.980;2023-04-28T13:09:36;68859.88;;;22.87;100.00
5988;BME280;3021;51.000;6.980;2023-04-28T13:12:02;68844.72;;;22.74;100.00
5988;BME280;3021;51.000;6.980;2023-04-28T13:14:28;68784.00;;;22.20;100.00
5988;BME280;3021;51.000;6.980;2023-04-28T13:16:53;68714.06;;;21.58;100.00
5988;BME280;3021;51.000;6.980;2023-04-28T13:19:19;68625.34;;;20.78;100.00
5988;BME280;3021;51.000;6.980;2023-04-28T13:21:44;68510.13;;;19.78;100.00
5988;BME280;3021;51.000;6.980;2023-04-28T13:24:11;68397.69;;;18.76;100.00
5988;BME280;3021;51.000;6.980;2023-04-28T13:26:38;68320.19;;;18.05;100.00
5988;BME280;3021;51.000;6.980;2023-04-28T13:29:04;68313.78;;;18.00;100.00
5988;BME280;3021;51.000;6.980;2023-04-28T13:31:29;68376.72;;;18.58;100.00
5988;BME280;3021;51.000;6.980;2023-04-28T13:33:56;68436.22;;;19.13;100.00
5988;BME280;3021;51.000;6.980;2023-04-28T13:36:21;68427.94;;;19.03;100.00
5988;BME280;3021;51.000;6.980;2023-04-28T13:38:48;68430.84;;;19.06;100.00
5988;BME280;3021;51.000;6.980;2023-04-28T13:41:14;68426.91;;;19.05;100.00
5988;BME280;3021;51.000;6.980;2023-04-28T13:43:40;68399.41;;;18.78;100.00
5988;BME280;3021;51.000;6.980;2023-04-28T13:46:06;68377.88;;;18.59;100.00
5988;BME280;3021;51.000;6.980;2023-04-28T13:48:35;68360.44;;;18.43;100.00
5988;BME280;3021;51.000;6.980;2023-04-28T13:51:02;68351.13;;;18.35;100.00
5988;BME280;3021;51.000;6.980;2023-04-28T13:53:28;68363.94;;;18.46;100.00
5988;BME280;3021;51.000;6.980;2023-04-28T13:55:57;68380.66;;;18.59;100.00
5988;BME280;3021;51.000;6.980;2023-04-28T13:58:26;68366.84;;;18.49;100.00
5988;BME280;3021;51.000;6.980;2023-04-28T14:00:52;68369.16;;;18.51;100.00
5988;BME280;3021;51.000;6.980;2023-04-28T14:03:19;68384.88;;;18.65;100.00